sensor_id;sensor_type;location;lat;lon;timestamp;P1;durP1;ratioP1;P2;durP2;ratioP2
12445;SDS011;6287;50.984;7.022;2023-06-19T00:00:40;3.88;;;3.50;;
12445;SDS011;6287;50.984;7.022;2023-06-19T00:03:08;3.47;;;3.17;;
12445;SDS011;6287;50.984;7.022;2023-06-19T00:05:36;3.75;;;3.45;;
12445;SDS011;6287;50.984;7.022;2023-06-19T00:08:04;3.65;;;3.35;;
12445;SDS011;6287;50.984;7.022;2023-06-19T00:10:32;3.75;;;3.40;;
12445;SDS011;6287;50.984;7.022;2023-06-19T00:13:00;3.60;;;3.30;;
12445;SDS011;6287;50.984;7.022;2023-06-19T00:15:28;3.92;;;3.30;;
12445;SDS011;6287;50.984;7.022;2023-06-19T00:17:54;3.85;;;3.55;;
12445;SDS011;6287;50.984;7.022;2023-06-19T00:20:21;3.95;;;3.53;;
12445;SDS011;6287;50.984;7.022;2023-06-19T00:22:47;3.58;;;3.28;;
12445;SDS011;6287;50.984;7.022;2023-06-19T00:25:16;3.40;;;3.10;;
12445;SDS011;6287;50.984;7.022;2023-06-19T00:27:46;3.80;;;3.25;;
12445;SDS011;6287;50.984;7.022;2023-06-19T00:30:14;4.03;;;3.63;;
12445;SDS011;6287;50.984;7.022;2023-06-19T00:32:42;3.60;;;3.30;;
12445;SDS011;6287;50.984;7.022;2023-06-19T00:35:17;4.10;;;3.50;;
12445;SDS011;6287;50.984;7.022;2023-06-19T00:37:43;3.95;;;3.63;;
12445;SDS011;6287;50.984;7.022;2023-06-19T00:40:30;3.25;;;3.05;;
12445;SDS011;6287;50.984;7.022;2023-06-19T00:42:59;3.83;;;3.53;;
12445;SDS011;6287;50.984;7.022;2023-06-19T00:45:30;3.67;;;3.38;;
12445;SDS011;6287;50.984;7.022;2023-06-19T00:47:58;3.53;;;3.17;;
12445;SDS011;6287;50.984;7.022;2023-06-19T00:50:25;4.10;;;3.70;;
12445;SDS011;6287;50.984;7.022;2023-06-19T00:52:57;3.75;;;3.45;;
12445;SDS011;6287;50.984;7.022;2023-06-19T00:55:24;4.32;;;3.42;;
12445;SDS011;6287;50.984;7.022;2023-06-19T00:57:53;4.75;;;4.35;;
12445;SDS011;6287;50.984;7.022;2023-06-19T01:00:23;4.20;;;3.80;;
12445;SDS011;6287;50.984;7.022;2023-06-19T01:02:51;3.95;;;3.40;;
12445;SDS011;6287;50.984;7.022;2023-06-19T01:05:19;3.83;;;3.42;;
12445;SDS011;6287;50.984;7.022;2023-06-19T01:10:13;4.20;;;3.80;;
12445;SDS011;6287;50.984;7.022;2023-06-19T01:12:46;4.63;;;3.65;;
12445;SDS011;6287;50.984;7.022;2023-06-19T01:15:26;4.03;;;3.60;;
12445;SDS011;6287;50.984;7.022;2023-06-19T01:17:54;4.47;;;4.07;;
12445;SDS011;6287;50.984;7.022;2023-06-19T01:20:24;4.22;;;3.85;;
12445;SDS011;6287;50.984;7.022;2023-06-19T01:22:52;4.18;;;3.78;;
12445;SDS011;6287;50.984;7.022;2023-06-19T01:25:21;4.10;;;3.70;;
12445;SDS011;6287;50.984;7.022;2023-06-19T01:27:51;4.40;;;4.00;;
12445;SDS011;6287;50.984;7.022;2023-06-19T01:30:19;4.28;;;3.80;;
12445;SDS011;6287;50.984;7.022;2023-06-19T01:32:53;4.10;;;3.70;;
12445;SDS011;6287;50.984;7.022;2023-06-19T01:35:27;4.40;;;4.00;;
12445;SDS011;6287;50.984;7.022;2023-06-19T01:37:56;4.20;;;3.80;;
12445;SDS011;6287;50.984;7.022;2023-06-19T01:40:24;3.90;;;3.60;;
12445;SDS011;6287;50.984;7.022;2023-06-19T01:42:59;4.07;;;3.65;;
12445;SDS011;6287;50.984;7.022;2023-06-19T01:45:29;4.22;;;3.83;;
12445;SDS011;6287;50.984;7.022;2023-06-19T01:47:55;4.75;;;4.25;;
12445;SDS011;6287;50.984;7.022;2023-06-19T01:50:23;4.32;;;3.92;;
12445;SDS011;6287;50.984;7.022;2023-06-19T01:52:49;4.68;;;4.25;;
12445;SDS011;6287;50.984;7.022;2023-06-19T01:55:16;4.28;;;3.88;;
12445;SDS011;6287;50.984;7.022;2023-06-19T01:57:44;4.75;;;4.13;;
12445;SDS011;6287;50.984;7.022;2023-06-19T02:00:11;5.90;;;4.35;;
12445;SDS011;6287;50.984;7.022;2023-06-19T02:02:41;4.95;;;4.40;;
12445;SDS011;6287;50.984;7.022;2023-06-19T02:05:09;4.47;;;3.85;;
12445;SDS011;6287;50.984;7.022;2023-06-19T02:07:41;4.45;;;4.05;;
12445;SDS011;6287;50.984;7.022;2023-06-19T02:10:07;4.75;;;4.35;;
12445;SDS011;6287;50.984;7.022;2023-06-19T02:12:33;4.05;;;3.67;;
12445;SDS011;6287;50.984;7.022;2023-06-19T02:15:04;5.10;;;4.13;;
12445;SDS011;6287;50.984;7.022;2023-06-19T02:17:32;4.55;;;4.15;;
12445;SDS011;6287;50.984;7.022;2023-06-19T02:20:00;5.15;;;4.38;;
12445;SDS011;6287;50.984;7.022;2023-06-19T02:22:30;4.50;;;3.95;;
12445;SDS011;6287;50.984;7.022;2023-06-19T02:25:00;4.97;;;4.47;;
12445;SDS011;6287;50.984;7.022;2023-06-19T02:27:29;4.95;;;4.47;;
12445;SDS011;6287;50.984;7.022;2023-06-19T02:29:57;4.53;;;4.07;;
12445;SDS011;6287;50.984;7.022;2023-06-19T02:32:22;4.80;;;4.40;;
12445;SDS011;6287;50.984;7.022;2023-06-19T02:34:49;4.45;;;4.05;;
12445;SDS011;6287;50.984;7.022;2023-06-19T02:37:17;4.80;;;4.25;;
12445;SDS011;6287;50.984;7.022;2023-06-19T02:39:45;6.10;;;4.60;;
12445;SDS011;6287;50.984;7.022;2023-06-19T02:42:10;5.63;;;5.10;;
12445;SDS011;6287;50.984;7.022;2023-06-19T02:44:36;5.03;;;4.53;;
12445;SDS011;6287;50.984;7.022;2023-06-19T02:47:04;5.18;;;4.68;;
12445;SDS011;6287;50.984;7.022;2023-06-19T02:49:29;5.10;;;4.68;;
12445;SDS011;6287;50.984;7.022;2023-06-19T02:51:58;5.40;;;4.72;;
12445;SDS011;6287;50.984;7.022;2023-06-19T02:54:26;5.35;;;4.85;;
12445;SDS011;6287;50.984;7.022;2023-06-19T02:56:54;5.13;;;4.57;;
12445;SDS011;6287;50.984;7.022;2023-06-19T02:59:22;4.85;;;4.45;;
12445;SDS011;6287;50.984;7.022;2023-06-19T03:01:50;5.30;;;4.80;;
12445;SDS011;6287;50.984;7.022;2023-06-19T03:04:18;4.60;;;4.20;;
12445;SDS011;6287;50.984;7.022;2023-06-19T03:06:48;7.68;;;4.53;;
12445;SDS011;6287;50.984;7.022;2023-06-19T03:09:16;6.40;;;4.82;;
12445;SDS011;6287;50.984;7.022;2023-06-19T03:11:41;5.55;;;4.90;;
12445;SDS011;6287;50.984;7.022;2023-06-19T03:14:12;5.38;;;4.88;;
12445;SDS011;6287;50.984;7.022;2023-06-19T03:16:42;5.97;;;5.18;;
12445;SDS011;6287;50.984;7.022;2023-06-19T03:19:08;5.43;;;4.93;;
12445;SDS011;6287;50.984;7.022;2023-06-19T03:21:33;5.43;;;4.93;;
12445;SDS011;6287;50.984;7.022;2023-06-19T03:24:01;5.63;;;5.10;;
12445;SDS011;6287;50.984;7.022;2023-06-19T03:26:29;4.85;;;4.45;;
12445;SDS011;6287;50.984;7.022;2023-06-19T03:29:00;5.70;;;4.85;;
12445;SDS011;6287;50.984;7.022;2023-06-19T03:31:25;5.20;;;4.80;;
12445;SDS011;6287;50.984;7.022;2023-06-19T03:33:51;5.82;;;5.00;;
12445;SDS011;6287;50.984;7.022;2023-06-19T03:36:16;6.80;;;5.20;;
12445;SDS011;6287;50.984;7.022;2023-06-19T03:38:42;5.65;;;5.03;;
12445;SDS011;6287;50.984;7.022;2023-06-19T03:41:07;6.47;;;5.20;;
12445;SDS011;6287;50.984;7.022;2023-06-19T03:43:35;5.80;;;5.20;;
12445;SDS011;6287;50.984;7.022;2023-06-19T03:46:01;5.28;;;4.78;;
12445;SDS011;6287;50.984;7.022;2023-06-19T03:48:27;4.93;;;4.53;;
12445;SDS011;6287;50.984;7.022;2023-06-19T03:50:54;5.53;;;5.03;;
12445;SDS011;6287;50.984;7.022;2023-06-19T03:53:20;6.20;;;5.60;;
12445;SDS011;6287;50.984;7.022;2023-06-19T03:55:48;6.72;;;5.32;;
12445;SDS011;6287;50.984;7.022;2023-06-19T03:58:13;5.93;;;5.43;;
12445;SDS011;6287;50.984;7.022;2023-06-19T04:00:41;5.75;;;5.15;;
12445;SDS011;6287;50.984;7.022;2023-06-19T04:03:09;5.70;;;5.07;;
12445;SDS011;6287;50.984;7.022;2023-06-19T04:05:39;6.93;;;5.00;;
12445;SDS011;6287;50.984;7.022;2023-06-19T04:08:09;5.35;;;4.40;;
12445;SDS011;6287;50.984;7.022;2023-06-19T04:10:39;5.30;;;4.45;;
12445;SDS011;6287;50.984;7.022;2023-06-19T04:13:05;5.45;;;4.90;;
12445;SDS011;6287;50.984;7.022;2023-06-19T04:15:32;5.20;;;4.57;;
12445;SDS011;6287;50.984;7.022;2023-06-19T04:18:03;5.00;;;4.28;;
12445;SDS011;6287;50.984;7.022;2023-06-19T04:20:31;4.57;;;4.18;;
12445;SDS011;6287;50.984;7.022;2023-06-19T04:23:01;3.40;;;3.10;;
12445;SDS011;6287;50.984;7.022;2023-06-19T04:25:26;3.90;;;3.15;;
12445;SDS011;6287;50.984;7.022;2023-06-19T04:27:57;3.85;;;3.03;;
12445;SDS011;6287;50.984;7.022;2023-06-19T04:30:22;3.72;;;3.08;;
12445;SDS011;6287;50.984;7.022;2023-06-19T04:32:48;3.22;;;2.92;;
12445;SDS011;6287;50.984;7.022;2023-06-19T04:35:14;3.13;;;2.83;;
12445;SDS011;6287;50.984;7.022;2023-06-19T04:37:43;3.55;;;2.97;;
12445;SDS011;6287;50.984;7.022;2023-06-19T04:40:09;4.05;;;3.08;;
12445;SDS011;6287;50.984;7.022;2023-06-19T04:42:37;3.60;;;2.70;;
12445;SDS011;6287;50.984;7.022;2023-06-19T04:45:05;2.65;;;2.45;;
12445;SDS011;6287;50.984;7.022;2023-06-19T04:47:32;2.58;;;2.38;;
12445;SDS011;6287;50.984;7.022;2023-06-19T04:50:00;2.53;;;2.25;;
12445;SDS011;6287;50.984;7.022;2023-06-19T04:52:28;2.42;;;2.20;;
12445;SDS011;6287;50.984;7.022;2023-06-19T04:54:54;2.17;;;1.98;;
12445;SDS011;6287;50.984;7.022;2023-06-19T04:57:21;2.72;;;2.42;;
12445;SDS011;6287;50.984;7.022;2023-06-19T04:59:47;2.88;;;2.10;;
12445;SDS011;6287;50.984;7.022;2023-06-19T05:02:17;2.00;;;1.80;;
12445;SDS011;6287;50.984;7.022;2023-06-19T05:04:45;2.08;;;1.98;;
12445;SDS011;6287;50.984;7.022;2023-06-19T05:07:13;2.15;;;1.98;;
12445;SDS011;6287;50.984;7.022;2023-06-19T05:09:42;2.13;;;1.85;;
12445;SDS011;6287;50.984;7.022;2023-06-19T05:12:09;2.13;;;1.92;;
12445;SDS011;6287;50.984;7.022;2023-06-19T05:14:37;3.60;;;1.60;;
12445;SDS011;6287;50.984;7.022;2023-06-19T05:17:05;2.08;;;1.88;;
12445;SDS011;6287;50.984;7.022;2023-06-19T05:19:35;1.98;;;1.80;;
12445;SDS011;6287;50.984;7.022;2023-06-19T05:22:03;4.03;;;1.90;;
12445;SDS011;6287;50.984;7.022;2023-06-19T05:24:29;2.13;;;1.88;;
12445;SDS011;6287;50.984;7.022;2023-06-19T05:26:55;1.70;;;1.60;;
12445;SDS011;6287;50.984;7.022;2023-06-19T05:29:25;2.03;;;1.73;;
12445;SDS011;6287;50.984;7.022;2023-06-19T05:31:53;2.17;;;1.98;;
12445;SDS011;6287;50.984;7.022;2023-06-19T05:34:24;1.98;;;1.77;;
12445;SDS011;6287;50.984;7.022;2023-06-19T05:36:49;1.80;;;1.70;;
12445;SDS011;6287;50.984;7.022;2023-06-19T05:39:17;1.90;;;1.80;;
12445;SDS011;6287;50.984;7.022;2023-06-19T05:41:43;2.00;;;1.65;;
12445;SDS011;6287;50.984;7.022;2023-06-19T05:44:11;2.00;;;1.60;;
12445;SDS011;6287;50.984;7.022;2023-06-19T05:46:43;2.15;;;1.90;;
12445;SDS011;6287;50.984;7.022;2023-06-19T05:49:09;1.60;;;1.50;;
12445;SDS011;6287;50.984;7.022;2023-06-19T05:51:37;3.30;;;1.80;;
12445;SDS011;6287;50.984;7.022;2023-06-19T05:54:03;2.40;;;2.20;;
12445;SDS011;6287;50.984;7.022;2023-06-19T05:56:32;2.25;;;1.80;;
12445;SDS011;6287;50.984;7.022;2023-06-19T05:58:58;2.53;;;1.60;;
12445;SDS011;6287;50.984;7.022;2023-06-19T06:01:28;1.52;;;1.42;;
12445;SDS011;6287;50.984;7.022;2023-06-19T06:03:54;2.40;;;1.50;;
12445;SDS011;6287;50.984;7.022;2023-06-19T06:06:20;1.67;;;1.58;;
12445;SDS011;6287;50.984;7.022;2023-06-19T06:08:48;2.08;;;1.65;;
12445;SDS011;6287;50.984;7.022;2023-06-19T06:11:14;1.52;;;1.42;;
12445;SDS011;6287;50.984;7.022;2023-06-19T06:13:40;1.90;;;1.70;;
12445;SDS011;6287;50.984;7.022;2023-06-19T06:16:08;1.15;;;1.08;;
12445;SDS011;6287;50.984;7.022;2023-06-19T06:18:38;1.27;;;1.17;;
12445;SDS011;6287;50.984;7.022;2023-06-19T06:21:04;1.08;;;1.00;;
12445;SDS011;6287;50.984;7.022;2023-06-19T06:23:31;2.33;;;1.25;;
12445;SDS011;6287;50.984;7.022;2023-06-19T06:25:57;1.42;;;1.30;;
12445;SDS011;6287;50.984;7.022;2023-06-19T06:28:27;3.60;;;1.30;;
12445;SDS011;6287;50.984;7.022;2023-06-19T06:30:53;1.20;;;1.10;;
12445;SDS011;6287;50.984;7.022;2023-06-19T06:33:21;2.20;;;1.17;;
12445;SDS011;6287;50.984;7.022;2023-06-19T06:35:50;2.13;;;1.50;;
12445;SDS011;6287;50.984;7.022;2023-06-19T06:38:18;1.45;;;1.35;;
12445;SDS011;6287;50.984;7.022;2023-06-19T06:40:44;1.33;;;1.10;;
12445;SDS011;6287;50.984;7.022;2023-06-19T06:43:10;1.40;;;1.20;;
12445;SDS011;6287;50.984;7.022;2023-06-19T06:45:35;1.75;;;1.40;;
12445;SDS011;6287;50.984;7.022;2023-06-19T06:48:05;1.02;;;1.00;;
12445;SDS011;6287;50.984;7.022;2023-06-19T06:50:34;1.10;;;1.10;;
12445;SDS011;6287;50.984;7.022;2023-06-19T06:52:59;1.40;;;1.30;;
12445;SDS011;6287;50.984;7.022;2023-06-19T06:55:27;1.15;;;1.13;;
12445;SDS011;6287;50.984;7.022;2023-06-19T06:57:55;1.95;;;0.90;;
12445;SDS011;6287;50.984;7.022;2023-06-19T07:00:21;1.20;;;1.10;;
12445;SDS011;6287;50.984;7.022;2023-06-19T07:02:51;1.50;;;1.40;;
12445;SDS011;6287;50.984;7.022;2023-06-19T07:05:19;1.45;;;1.35;;
12445;SDS011;6287;50.984;7.022;2023-06-19T07:07:47;3.00;;;1.25;;
12445;SDS011;6287;50.984;7.022;2023-06-19T07:10:17;1.23;;;0.98;;
12445;SDS011;6287;50.984;7.022;2023-06-19T07:12:46;1.25;;;1.15;;
12445;SDS011;6287;50.984;7.022;2023-06-19T07:15:18;1.92;;;0.98;;
12445;SDS011;6287;50.984;7.022;2023-06-19T07:17:44;1.70;;;0.65;;
12445;SDS011;6287;50.984;7.022;2023-06-19T07:20:10;0.90;;;0.90;;
12445;SDS011;6287;50.984;7.022;2023-06-19T07:22:36;0.80;;;0.80;;
12445;SDS011;6287;50.984;7.022;2023-06-19T07:25:02;1.20;;;0.82;;
12445;SDS011;6287;50.984;7.022;2023-06-19T07:27:31;0.98;;;0.90;;
12445;SDS011;6287;50.984;7.022;2023-06-19T07:29:59;0.88;;;0.88;;
12445;SDS011;6287;50.984;7.022;2023-06-19T07:32:25;1.58;;;0.80;;
12445;SDS011;6287;50.984;7.022;2023-06-19T07:34:50;0.95;;;0.88;;
12445;SDS011;6287;50.984;7.022;2023-06-19T07:37:18;0.80;;;0.80;;
12445;SDS011;6287;50.984;7.022;2023-06-19T07:39:51;0.82;;;0.82;;
12445;SDS011;6287;50.984;7.022;2023-06-19T07:42:18;1.00;;;1.00;;
12445;SDS011;6287;50.984;7.022;2023-06-19T07:44:46;0.90;;;0.90;;
12445;SDS011;6287;50.984;7.022;2023-06-19T07:47:12;0.80;;;0.80;;
12445;SDS011;6287;50.984;7.022;2023-06-19T07:49:41;0.80;;;0.80;;
12445;SDS011;6287;50.984;7.022;2023-06-19T07:52:09;0.85;;;0.70;;
12445;SDS011;6287;50.984;7.022;2023-06-19T07:54:47;1.33;;;0.70;;
12445;SDS011;6287;50.984;7.022;2023-06-19T07:57:19;1.20;;;1.00;;
12445;SDS011;6287;50.984;7.022;2023-06-19T07:59:46;0.80;;;0.80;;
12445;SDS011;6287;50.984;7.022;2023-06-19T08:02:12;1.30;;;0.90;;
12445;SDS011;6287;50.984;7.022;2023-06-19T08:04:42;1.05;;;0.95;;
12445;SDS011;6287;50.984;7.022;2023-06-19T08:07:08;0.77;;;0.77;;
12445;SDS011;6287;50.984;7.022;2023-06-19T08:09:34;0.82;;;0.82;;
12445;SDS011;6287;50.984;7.022;2023-06-19T08:12:02;1.60;;;0.90;;
12445;SDS011;6287;50.984;7.022;2023-06-19T08:14:28;2.88;;;0.80;;
12445;SDS011;6287;50.984;7.022;2023-06-19T08:16:56;1.20;;;1.10;;
12445;SDS011;6287;50.984;7.022;2023-06-19T08:19:24;0.82;;;0.82;;
12445;SDS011;6287;50.984;7.022;2023-06-19T08:21:52;0.95;;;0.95;;
12445;SDS011;6287;50.984;7.022;2023-06-19T08:24:20;0.90;;;0.90;;
12445;SDS011;6287;50.984;7.022;2023-06-19T08:26:45;2.05;;;1.30;;
12445;SDS011;6287;50.984;7.022;2023-06-19T08:29:15;1.38;;;1.10;;
12445;SDS011;6287;50.984;7.022;2023-06-19T08:31:41;0.90;;;0.90;;
12445;SDS011;6287;50.984;7.022;2023-06-19T08:34:07;0.80;;;0.80;;
12445;SDS011;6287;50.984;7.022;2023-06-19T08:36:36;0.82;;;0.80;;
12445;SDS011;6287;50.984;7.022;2023-06-19T08:39:02;0.85;;;0.85;;
12445;SDS011;6287;50.984;7.022;2023-06-19T08:41:28;1.17;;;0.90;;
12445;SDS011;6287;50.984;7.022;2023-06-19T08:43:55;2.53;;;0.90;;
12445;SDS011;6287;50.984;7.022;2023-06-19T08:46:23;0.85;;;0.85;;
12445;SDS011;6287;50.984;7.022;2023-06-19T08:48:49;1.65;;;0.98;;
12445;SDS011;6287;50.984;7.022;2023-06-19T08:51:17;1.08;;;0.98;;
12445;SDS011;6287;50.984;7.022;2023-06-19T08:53:46;2.58;;;1.08;;
12445;SDS011;6287;50.984;7.022;2023-06-19T08:56:15;1.92;;;1.10;;
12445;SDS011;6287;50.984;7.022;2023-06-19T08:58:40;1.00;;;1.00;;
12445;SDS011;6287;50.984;7.022;2023-06-19T09:01:11;0.75;;;0.75;;
12445;SDS011;6287;50.984;7.022;2023-06-19T09:03:38;1.45;;;0.93;;
12445;SDS011;6287;50.984;7.022;2023-06-19T09:06:06;0.80;;;0.80;;
12445;SDS011;6287;50.984;7.022;2023-06-19T09:08:32;1.65;;;1.20;;
12445;SDS011;6287;50.984;7.022;2023-06-19T09:10:58;0.90;;;0.90;;
12445;SDS011;6287;50.984;7.022;2023-06-19T09:13:28;1.67;;;1.20;;
12445;SDS011;6287;50.984;7.022;2023-06-19T09:18:24;1.98;;;1.25;;
12445;SDS011;6287;50.984;7.022;2023-06-19T09:20:52;2.75;;;1.35;;
12445;SDS011;6287;50.984;7.022;2023-06-19T09:23:19;1.55;;;1.30;;
12445;SDS011;6287;50.984;7.022;2023-06-19T09:25:52;1.45;;;1.35;;
12445;SDS011;6287;50.984;7.022;2023-06-19T09:28:24;2.08;;;1.60;;
12445;SDS011;6287;50.984;7.022;2023-06-19T09:33:25;1.55;;;1.42;;
12445;SDS011;6287;50.984;7.022;2023-06-19T09:35:55;1.60;;;1.50;;
12445;SDS011;6287;50.984;7.022;2023-06-19T09:38:26;2.83;;;1.60;;
12445;SDS011;6287;50.984;7.022;2023-06-19T09:40:53;1.50;;;1.40;;
12445;SDS011;6287;50.984;7.022;2023-06-19T09:43:24;1.55;;;1.45;;
12445;SDS011;6287;50.984;7.022;2023-06-19T09:46:09;1.70;;;1.60;;
12445;SDS011;6287;50.984;7.022;2023-06-19T09:48:42;2.55;;;1.85;;
12445;SDS011;6287;50.984;7.022;2023-06-19T09:53:47;2.10;;;1.90;;
12445;SDS011;6287;50.984;7.022;2023-06-19T09:56:18;3.35;;;1.90;;
12445;SDS011;6287;50.984;7.022;2023-06-19T09:58:47;4.22;;;1.80;;
12445;SDS011;6287;50.984;7.022;2023-06-19T10:01:18;2.30;;;1.60;;
12445;SDS011;6287;50.984;7.022;2023-06-19T10:03:44;2.15;;;1.95;;
12445;SDS011;6287;50.984;7.022;2023-06-19T10:06:15;2.55;;;2.25;;
12445;SDS011;6287;50.984;7.022;2023-06-19T10:08:42;3.50;;;1.67;;
12445;SDS011;6287;50.984;7.022;2023-06-19T10:11:11;2.63;;;2.13;;
12445;SDS011;6287;50.984;7.022;2023-06-19T10:13:42;2.30;;;2.10;;
12445;SDS011;6287;50.984;7.022;2023-06-19T10:16:12;2.60;;;2.00;;
12445;SDS011;6287;50.984;7.022;2023-06-19T10:18:53;2.70;;;1.90;;
12445;SDS011;6287;50.984;7.022;2023-06-19T10:21:19;2.20;;;2.00;;
12445;SDS011;6287;50.984;7.022;2023-06-19T10:23:56;2.22;;;2.08;;
12445;SDS011;6287;50.984;7.022;2023-06-19T10:26:32;2.53;;;2.08;;
12445;SDS011;6287;50.984;7.022;2023-06-19T10:28:59;2.20;;;2.00;;
12445;SDS011;6287;50.984;7.022;2023-06-19T10:31:29;2.15;;;2.03;;
12445;SDS011;6287;50.984;7.022;2023-06-19T10:33:55;1.98;;;1.88;;
12445;SDS011;6287;50.984;7.022;2023-06-19T10:36:21;2.30;;;2.00;;
12445;SDS011;6287;50.984;7.022;2023-06-19T10:38:51;2.30;;;2.00;;
12445;SDS011;6287;50.984;7.022;2023-06-19T10:43:52;2.00;;;1.90;;
12445;SDS011;6287;50.984;7.022;2023-06-19T10:46:22;1.92;;;1.80;;
12445;SDS011;6287;50.984;7.022;2023-06-19T10:48:49;2.80;;;1.85;;
12445;SDS011;6287;50.984;7.022;2023-06-19T10:51:19;3.70;;;2.25;;
12445;SDS011;6287;50.984;7.022;2023-06-19T10:53:47;3.08;;;2.28;;
12445;SDS011;6287;50.984;7.022;2023-06-19T10:56:14;2.40;;;2.10;;
12445;SDS011;6287;50.984;7.022;2023-06-19T10:58:39;2.70;;;2.05;;
12445;SDS011;6287;50.984;7.022;2023-06-19T11:01:05;3.83;;;2.28;;
12445;SDS011;6287;50.984;7.022;2023-06-19T11:03:31;2.53;;;2.03;;
12445;SDS011;6287;50.984;7.022;2023-06-19T11:05:59;2.13;;;1.60;;
12445;SDS011;6287;50.984;7.022;2023-06-19T11:08:25;2.58;;;2.15;;
12445;SDS011;6287;50.984;7.022;2023-06-19T11:10:53;2.22;;;2.03;;
12445;SDS011;6287;50.984;7.022;2023-06-19T11:13:20;2.17;;;1.98;;
12445;SDS011;6287;50.984;7.022;2023-06-19T11:15:51;3.28;;;2.17;;
12445;SDS011;6287;50.984;7.022;2023-06-19T11:18:17;5.35;;;2.20;;
12445;SDS011;6287;50.984;7.022;2023-06-19T11:20:47;2.00;;;1.88;;
12445;SDS011;6287;50.984;7.022;2023-06-19T11:23:16;3.03;;;1.88;;
12445;SDS011;6287;50.984;7.022;2023-06-19T11:25:49;2.72;;;2.33;;
12445;SDS011;6287;50.984;7.022;2023-06-19T11:28:17;4.50;;;2.33;;
12445;SDS011;6287;50.984;7.022;2023-06-19T11:30:47;2.25;;;2.05;;
12445;SDS011;6287;50.984;7.022;2023-06-19T11:33:26;2.70;;;1.95;;
12445;SDS011;6287;50.984;7.022;2023-06-19T11:36:01;3.60;;;1.85;;
12445;SDS011;6287;50.984;7.022;2023-06-19T11:38:32;2.85;;;2.13;;
12445;SDS011;6287;50.984;7.022;2023-06-19T11:41:01;2.38;;;2.17;;
12445;SDS011;6287;50.984;7.022;2023-06-19T11:43:30;2.80;;;2.33;;
12445;SDS011;6287;50.984;7.022;2023-06-19T11:46:01;2.83;;;2.30;;
12445;SDS011;6287;50.984;7.022;2023-06-19T11:48:31;2.33;;;2.10;;
12445;SDS011;6287;50.984;7.022;2023-06-19T11:51:03;2.10;;;1.90;;
12445;SDS011;6287;50.984;7.022;2023-06-19T11:53:29;3.75;;;2.22;;
12445;SDS011;6287;50.984;7.022;2023-06-19T11:55:56;2.88;;;2.20;;
12445;SDS011;6287;50.984;7.022;2023-06-19T11:58:22;2.67;;;2.17;;
12445;SDS011;6287;50.984;7.022;2023-06-19T12:00:48;2.20;;;2.00;;
12445;SDS011;6287;50.984;7.022;2023-06-19T12:03:14;2.00;;;1.90;;
12445;SDS011;6287;50.984;7.022;2023-06-19T12:05:40;2.17;;;1.98;;
12445;SDS011;6287;50.984;7.022;2023-06-19T12:08:08;3.03;;;2.25;;
12445;SDS011;6287;50.984;7.022;2023-06-19T12:10:34;2.45;;;1.90;;
12445;SDS011;6287;50.984;7.022;2023-06-19T12:12:59;3.08;;;2.10;;
12445;SDS011;6287;50.984;7.022;2023-06-19T12:15:25;2.25;;;2.05;;
12445;SDS011;6287;50.984;7.022;2023-06-19T12:17:53;4.55;;;2.10;;
12445;SDS011;6287;50.984;7.022;2023-06-19T12:20:22;1.98;;;1.77;;
12445;SDS011;6287;50.984;7.022;2023-06-19T12:22:48;2.10;;;1.90;;
12445;SDS011;6287;50.984;7.022;2023-06-19T12:25:16;3.60;;;2.00;;
12445;SDS011;6287;50.984;7.022;2023-06-19T12:27:44;2.55;;;1.85;;
12445;SDS011;6287;50.984;7.022;2023-06-19T12:30:09;2.05;;;1.85;;
12445;SDS011;6287;50.984;7.022;2023-06-19T12:32:35;2.72;;;2.13;;
12445;SDS011;6287;50.984;7.022;2023-06-19T12:35:03;2.67;;;2.00;;
12445;SDS011;6287;50.984;7.022;2023-06-19T12:37:29;2.42;;;2.10;;
12445;SDS011;6287;50.984;7.022;2023-06-19T12:39:57;2.55;;;2.35;;
12445;SDS011;6287;50.984;7.022;2023-06-19T12:42:25;2.30;;;2.10;;
12445;SDS011;6287;50.984;7.022;2023-06-19T12:44:50;2.28;;;2.00;;
12445;SDS011;6287;50.984;7.022;2023-06-19T12:47:16;1.85;;;1.58;;
12445;SDS011;6287;50.984;7.022;2023-06-19T12:49:43;2.00;;;1.70;;
12445;SDS011;6287;50.984;7.022;2023-06-19T12:52:13;2.13;;;1.92;;
12445;SDS011;6287;50.984;7.022;2023-06-19T12:54:38;2.13;;;1.92;;
12445;SDS011;6287;50.984;7.022;2023-06-19T12:57:07;1.98;;;1.80;;
12445;SDS011;6287;50.984;7.022;2023-06-19T12:59:32;2.65;;;1.90;;
12445;SDS011;6287;50.984;7.022;2023-06-19T13:01:58;2.22;;;2.03;;
12445;SDS011;6287;50.984;7.022;2023-06-19T13:04:23;1.58;;;1.48;;
12445;SDS011;6287;50.984;7.022;2023-06-19T13:06:49;2.28;;;1.98;;
12445;SDS011;6287;50.984;7.022;2023-06-19T13:09:17;2.75;;;2.13;;
12445;SDS011;6287;50.984;7.022;2023-06-19T13:11:45;2.20;;;2.00;;
12445;SDS011;6287;50.984;7.022;2023-06-19T13:14:14;2.10;;;1.73;;
12445;SDS011;6287;50.984;7.022;2023-06-19T13:16:42;2.28;;;2.00;;
12445;SDS011;6287;50.984;7.022;2023-06-19T13:19:13;2.15;;;1.95;;
12445;SDS011;6287;50.984;7.022;2023-06-19T13:21:39;3.22;;;2.50;;
12445;SDS011;6287;50.984;7.022;2023-06-19T13:24:11;1.92;;;1.80;;
12445;SDS011;6287;50.984;7.022;2023-06-19T13:26:37;3.40;;;2.08;;
12445;SDS011;6287;50.984;7.022;2023-06-19T13:29:02;2.03;;;1.92;;
12445;SDS011;6287;50.984;7.022;2023-06-19T13:31:32;2.45;;;1.90;;
12445;SDS011;6287;50.984;7.022;2023-06-19T13:34:01;1.75;;;1.65;;
12445;SDS011;6287;50.984;7.022;2023-06-19T13:36:26;1.90;;;1.75;;
12445;SDS011;6287;50.984;7.022;2023-06-19T13:38:52;2.65;;;2.03;;
12445;SDS011;6287;50.984;7.022;2023-06-19T13:41:20;1.63;;;1.52;;
12445;SDS011;6287;50.984;7.022;2023-06-19T13:43:52;1.83;;;1.73;;
12445;SDS011;6287;50.984;7.022;2023-06-19T13:46:18;2.10;;;1.83;;
12445;SDS011;6287;50.984;7.022;2023-06-19T13:48:46;2.00;;;1.75;;
12445;SDS011;6287;50.984;7.022;2023-06-19T13:51:17;3.10;;;1.98;;
12445;SDS011;6287;50.984;7.022;2023-06-19T13:53:45;3.22;;;2.53;;
12445;SDS011;6287;50.984;7.022;2023-06-19T13:56:16;2.72;;;2.20;;
12445;SDS011;6287;50.984;7.022;2023-06-19T13:58:42;2.10;;;2.00;;
12445;SDS011;6287;50.984;7.022;2023-06-19T14:01:13;2.33;;;1.80;;
12445;SDS011;6287;50.984;7.022;2023-06-19T14:03:41;1.92;;;1.80;;
12445;SDS011;6287;50.984;7.022;2023-06-19T14:06:06;3.15;;;2.03;;
12445;SDS011;6287;50.984;7.022;2023-06-19T14:08:35;2.00;;;1.90;;
12445;SDS011;6287;50.984;7.022;2023-06-19T14:11:04;2.92;;;2.22;;
12445;SDS011;6287;50.984;7.022;2023-06-19T14:13:30;2.55;;;2.05;;
12445;SDS011;6287;50.984;7.022;2023-06-19T14:15:58;2.72;;;2.13;;
12445;SDS011;6287;50.984;7.022;2023-06-19T14:18:23;2.40;;;2.20;;
12445;SDS011;6287;50.984;7.022;2023-06-19T14:20:51;2.40;;;1.95;;
12445;SDS011;6287;50.984;7.022;2023-06-19T14:23:19;2.13;;;2.00;;
12445;SDS011;6287;50.984;7.022;2023-06-19T14:25:47;3.25;;;2.15;;
12445;SDS011;6287;50.984;7.022;2023-06-19T14:28:14;2.22;;;2.03;;
12445;SDS011;6287;50.984;7.022;2023-06-19T14:30:42;2.10;;;1.73;;
12445;SDS011;6287;50.984;7.022;2023-06-19T14:33:08;2.55;;;1.90;;
12445;SDS011;6287;50.984;7.022;2023-06-19T14:35:40;2.72;;;1.80;;
12445;SDS011;6287;50.984;7.022;2023-06-19T14:38:11;2.20;;;1.90;;
12445;SDS011;6287;50.984;7.022;2023-06-19T14:40:40;2.08;;;1.98;;
12445;SDS011;6287;50.984;7.022;2023-06-19T14:43:06;2.13;;;1.90;;
12445;SDS011;6287;50.984;7.022;2023-06-19T14:45:34;2.30;;;2.15;;
12445;SDS011;6287;50.984;7.022;2023-06-19T14:48:00;2.00;;;1.80;;
12445;SDS011;6287;50.984;7.022;2023-06-19T14:50:26;2.08;;;1.88;;
12445;SDS011;6287;50.984;7.022;2023-06-19T14:52:56;2.03;;;1.90;;
12445;SDS011;6287;50.984;7.022;2023-06-19T14:55:21;2.15;;;1.83;;
12445;SDS011;6287;50.984;7.022;2023-06-19T14:57:49;1.70;;;1.60;;
12445;SDS011;6287;50.984;7.022;2023-06-19T15:00:15;1.85;;;1.75;;
12445;SDS011;6287;50.984;7.022;2023-06-19T15:02:40;2.10;;;1.98;;
12445;SDS011;6287;50.984;7.022;2023-06-19T15:05:07;2.08;;;1.85;;
12445;SDS011;6287;50.984;7.022;2023-06-19T15:07:35;2.38;;;1.90;;
12445;SDS011;6287;50.984;7.022;2023-06-19T15:10:03;2.10;;;2.00;;
12445;SDS011;6287;50.984;7.022;2023-06-19T15:12:29;2.22;;;1.92;;
12445;SDS011;6287;50.984;7.022;2023-06-19T15:15:02;2.25;;;2.15;;
12445;SDS011;6287;50.984;7.022;2023-06-19T15:17:32;2.20;;;1.90;;